Albert Maersk — OUOW2 — position and weather

sailwx.info

Track history (hours):
 
Tides and Currents Weather Stations Pressure Air Temp Water Temp Dewpoint Dewpoint Depression Visibility Wind Speed Wind Dir Waves Ship Positions

Albert Maersk

Last reported at 2016-May-24 22:25 UTC. Time now 2016-May-28 06:02 UTC.
Position N 22°11' E 114°26'.

MMSI: 220259928.

Date/timePositionNaut miles runAvg speedWind from/ knotsBaromVisibWave heightAir tempDewpointWater temp
2016-May-24 22:25N 22°11' E 114°26'2511.4
2016-May-24 20:13N 22°34' E 114°16'0 0.0
2016-May-24 07:30N 22°34' E 114°17'19 9.5
2016-May-24 05:31N 22°18' E 114°28'1313.7
2016-May-24 04:32N 22°07' E 114°21'1812.1
2016-May-24 03:04N 22°17' E 114°06'1112.2
2016-May-24 02:08N 22°22' E 113°55'6 0.6
2016-May-23 16:20N 22°28' E 113°53'14 7.8
2016-May-23 14:31N 22°20' E 114°05'31917.8
2016-May-22 20:33N 24°31' E 119°22'35018.3
2016-May-22 01:25N 29°38' E 122°30'1112.9
2016-May-22 00:33N 29°44' E 122°19'1211.6
2016-May-21 23:33N 29°53' E 122°11'7 3.2
2016-May-21 21:15N 29°54' E 122°02'0 0.0
2016-May-21 20:27N 29°54' E 122°02'0 0.0
2016-May-21 19:33N 29°54' E 122°02'0 0.0
2016-May-21 17:33N 29°54' E 122°02'0 0.0
2016-May-21 10:33N 29°54' E 122°02'2 2.1
2016-May-21 09:34N 29°55' E 122°04'7 6.8
2016-May-21 08:33N 29°52' E 122°12'8 7.9
2016-May-21 07:33N 29°46' E 122°18'5 4.9
2016-May-21 06:32N 29°43' E 122°22'1 1.1
2016-May-21 05:31N 29°42' E 122°22'3 0.4
2016-May-20 23:09N 29°40' E 122°24'0 0.1
2016-May-20 22:30N 29°40' E 122°25'3 3.5
2016-May-20 21:33N 29°42' E 122°22'9 8.7
2016-May-20 20:33N 29°43' E 122°32'1515.1
2016-May-20 19:33N 29°49' E 122°47'3916.0
2016-May-20 17:05N 30°29' E 122°52'1018.6
2016-May-20 16:33N 30°30' E 122°41'1615.2
2016-May-20 15:29N 30°32' E 122°23'1210.8
2016-May-20 14:22N 30°34' E 122°09'6 0.4
2016-May-19 23:23N 30°38' E 122°03'0 0.4
2016-May-19 22:30N 30°38' E 122°03'8 7.9
2016-May-19 21:30N 30°34' E 122°11'9 9.2
2016-May-19 20:32N 30°33' E 122°21'1312.9
2016-May-19 19:33N 30°30' E 122°35'1110.1
2016-May-19 18:31N 30°24' E 122°45'1 0.2
2016-May-19 11:13N 30°23' E 122°46'4 5.7
2016-May-19 10:30N 30°21' E 122°50'56 8.9
2016-May-19 04:09N 29°25' E 122°54'710.4
2016-May-19 03:31N 29°18' E 122°56'42310.6
2016-May-17 11:33N 22°44' E 120°05'1111.2
2016-May-17 10:33N 22°35' E 120°12'7 6.7
2016-May-17 09:30N 22°33' E 120°20'0 0.0
2016-May-17 08:24N 22°33' E 120°20'0 0.0
2016-May-17 04:30N 22°33' E 120°20'0 0.0
2016-May-17 02:12N 22°33' E 120°20'0 0.1
2016-May-17 01:24N 22°33' E 120°20'0 0.0
2016-May-17 00:24N 22°33' E 120°20'0 0.0
2016-May-16 22:18N 22°33' E 120°20'0 0.0
2016-May-16 21:06N 22°33' E 120°20'0 0.0
2016-May-16 20:30N 22°33' E 120°20'0 0.0
2016-May-16 16:12N 22°33' E 120°20'0 0.1
2016-May-16 15:18N 22°33' E 120°20'0 0.0
2016-May-16 14:30N 22°33' E 120°20'1 1.0
2016-May-16 13:32N 22°33' E 120°19'8 7.8
2016-May-16 12:33N 22°30' E 120°11'1010.2
2016-May-16 11:33N 22°23' E 120°04'  
Track history (hours):
 
Tides and Currents Weather Stations Pressure Air Temp Water Temp Dewpoint Dewpoint Depression Visibility Wind Speed Wind Dir Waves Ship Positions

Albert Maersk

Last reported at 2016-May-24 22:25 UTC. Time now 2016-May-28 06:02 UTC.
Position N 22°11' E 114°26'.

MMSI: 220259928.

Date/timePositionNaut miles runAvg speedWind from/ knotsBaromVisibWave heightAir tempDewpointWater temp
2016-May-24 22:25N 22°11' E 114°26'2511.4
2016-May-24 20:13N 22°34' E 114°16'0 0.0
2016-May-24 07:30N 22°34' E 114°17'19 9.5
2016-May-24 05:31N 22°18' E 114°28'1313.7
2016-May-24 04:32N 22°07' E 114°21'1812.1
2016-May-24 03:04N 22°17' E 114°06'1112.2
2016-May-24 02:08N 22°22' E 113°55'6 0.6
2016-May-23 16:20N 22°28' E 113°53'14 7.8
2016-May-23 14:31N 22°20' E 114°05'31917.8
2016-May-22 20:33N 24°31' E 119°22'35018.3
2016-May-22 01:25N 29°38' E 122°30'1112.9
2016-May-22 00:33N 29°44' E 122°19'1211.6
2016-May-21 23:33N 29°53' E 122°11'7 3.2
2016-May-21 21:15N 29°54' E 122°02'0 0.0
2016-May-21 20:27N 29°54' E 122°02'0 0.0
2016-May-21 19:33N 29°54' E 122°02'0 0.0
2016-May-21 17:33N 29°54' E 122°02'0 0.0
2016-May-21 10:33N 29°54' E 122°02'2 2.1
2016-May-21 09:34N 29°55' E 122°04'7 6.8
2016-May-21 08:33N 29°52' E 122°12'8 7.9
2016-May-21 07:33N 29°46' E 122°18'5 4.9
2016-May-21 06:32N 29°43' E 122°22'1 1.1
2016-May-21 05:31N 29°42' E 122°22'3 0.4
2016-May-20 23:09N 29°40' E 122°24'0 0.1
2016-May-20 22:30N 29°40' E 122°25'3 3.5
2016-May-20 21:33N 29°42' E 122°22'9 8.7
2016-May-20 20:33N 29°43' E 122°32'1515.1
2016-May-20 19:33N 29°49' E 122°47'3916.0
2016-May-20 17:05N 30°29' E 122°52'1018.6
2016-May-20 16:33N 30°30' E 122°41'1615.2
2016-May-20 15:29N 30°32' E 122°23'1210.8
2016-May-20 14:22N 30°34' E 122°09'6 0.4
2016-May-19 23:23N 30°38' E 122°03'0 0.4
2016-May-19 22:30N 30°38' E 122°03'8 7.9
2016-May-19 21:30N 30°34' E 122°11'9 9.2
2016-May-19 20:32N 30°33' E 122°21'1312.9
2016-May-19 19:33N 30°30' E 122°35'1110.1
2016-May-19 18:31N 30°24' E 122°45'1 0.2
2016-May-19 11:13N 30°23' E 122°46'4 5.7
2016-May-19 10:30N 30°21' E 122°50'56 8.9
2016-May-19 04:09N 29°25' E 122°54'710.4
2016-May-19 03:31N 29°18' E 122°56'42310.6
2016-May-17 11:33N 22°44' E 120°05'1111.2
2016-May-17 10:33N 22°35' E 120°12'7 6.7
2016-May-17 09:30N 22°33' E 120°20'0 0.0
2016-May-17 08:24N 22°33' E 120°20'0 0.0
2016-May-17 04:30N 22°33' E 120°20'0 0.0
2016-May-17 02:12N 22°33' E 120°20'0 0.1
2016-May-17 01:24N 22°33' E 120°20'0 0.0
2016-May-17 00:24N 22°33' E 120°20'0 0.0
2016-May-16 22:18N 22°33' E 120°20'0 0.0
2016-May-16 21:06N 22°33' E 120°20'0 0.0
2016-May-16 20:30N 22°33' E 120°20'0 0.0
2016-May-16 16:12N 22°33' E 120°20'0 0.1
2016-May-16 15:18N 22°33' E 120°20'0 0.0
2016-May-16 14:30N 22°33' E 120°20'1 1.0
2016-May-16 13:32N 22°33' E 120°19'8 7.8
2016-May-16 12:33N 22°30' E 120°11'1010.2
2016-May-16 11:33N 22°23' E 120°04'  

Dump ship's entire track history